createdAt,value
2018-01-22T00:01:51.461Z,0.90
2018-01-22T00:04:21.325Z,0.90
2018-01-22T00:06:51.221Z,0.90
2018-01-22T00:09:21.113Z,0.90
2018-01-22T00:11:51.786Z,0.90
2018-01-22T00:14:21.675Z,0.90
2018-01-22T00:16:52.322Z,0.90
2018-01-22T00:19:22.145Z,0.90
2018-01-22T00:21:52.008Z,0.80
2018-01-22T00:24:21.871Z,0.80
2018-01-22T00:26:51.805Z,0.90
2018-01-22T00:29:21.682Z,0.90
2018-01-22T00:31:51.555Z,0.90
2018-01-22T00:34:21.465Z,0.80
2018-01-22T00:36:51.384Z,0.80
2018-01-22T00:39:21.261Z,0.80
2018-01-22T00:41:51.097Z,0.90
2018-01-22T00:44:21.200Z,0.90
2018-01-22T00:46:51.141Z,0.90
2018-01-22T00:49:20.995Z,0.90
2018-01-22T00:51:50.864Z,0.90
2018-01-22T00:54:20.372Z,0.90
2018-01-22T00:56:50.228Z,0.90
2018-01-22T00:59:20.827Z,0.90
2018-01-22T01:01:50.719Z,0.90
2018-01-22T01:04:20.556Z,1.00
2018-01-22T01:06:50.435Z,1.00
2018-01-22T01:09:20.311Z,1.00
2018-01-22T01:11:50.941Z,0.90
2018-01-22T01:14:20.749Z,0.90
2018-01-22T01:16:50.585Z,0.80
2018-01-22T01:19:21.212Z,0.80
2018-01-22T01:21:51.787Z,0.90
2018-01-22T01:24:21.647Z,0.80
2018-01-22T01:26:52.270Z,0.80
2018-01-22T01:29:22.147Z,0.80
2018-01-22T01:31:51.966Z,0.80
2018-01-22T01:34:21.875Z,0.80
2018-01-22T01:36:51.758Z,0.80
2018-01-22T01:39:21.619Z,0.80
2018-01-22T01:41:51.619Z,0.70
2018-01-22T01:44:21.949Z,0.80
2018-01-22T01:46:51.575Z,0.80
2018-01-22T01:49:21.407Z,0.70
2018-01-22T01:51:51.216Z,0.80
2018-01-22T01:54:21.083Z,0.70
2018-01-22T01:56:51.781Z,0.70
2018-01-22T01:59:21.652Z,0.70
2018-01-22T02:01:51.553Z,0.60
2018-01-22T02:04:21.396Z,0.60
2018-01-22T02:06:51.271Z,0.60
2018-01-22T02:09:21.105Z,0.60
2018-01-22T02:11:50.963Z,0.60
2018-01-22T02:14:21.329Z,0.60
2018-01-22T02:16:51.179Z,0.70
2018-01-22T02:19:21.051Z,0.70
2018-01-22T02:21:50.893Z,0.60
2018-01-22T02:24:20.724Z,0.60
2018-01-22T02:26:50.598Z,0.60
2018-01-22T02:29:21.232Z,0.60
2018-01-22T02:31:51.123Z,0.50
2018-01-22T02:34:21.498Z,0.60
2018-01-22T02:36:51.352Z,0.60
2018-01-22T02:39:21.217Z,0.60
2018-01-22T02:41:51.066Z,0.60
2018-01-22T02:44:20.946Z,0.70
2018-01-22T02:46:50.789Z,0.70
2018-01-22T02:49:20.638Z,0.70
2018-01-22T02:51:51.271Z,0.70
2018-01-22T02:54:21.915Z,0.80
2018-01-22T02:56:52.551Z,0.70
2018-01-22T02:59:22.413Z,0.70
2018-01-22T03:01:53.067Z,0.80
2018-01-22T03:04:22.891Z,0.80
2018-01-22T03:06:52.774Z,0.80
2018-01-22T03:09:22.619Z,0.70
2018-01-22T03:11:53.278Z,0.80
2018-01-22T03:14:23.106Z,0.80
2018-01-22T03:16:53.025Z,0.80
2018-01-22T03:19:23.047Z,0.70
2018-01-22T03:21:52.924Z,0.70
2018-01-22T03:24:23.543Z,0.70
2018-01-22T03:26:53.401Z,0.70
2018-01-22T03:29:23.272Z,0.70
2018-01-22T03:31:53.911Z,0.70
2018-01-22T03:34:25.589Z,0.70
2018-01-22T03:36:56.391Z,0.60
2018-01-22T03:39:26.253Z,0.60
2018-01-22T03:41:56.063Z,0.60
2018-01-22T03:44:25.911Z,0.70
2018-01-22T03:46:55.755Z,0.70
2018-01-22T03:49:26.363Z,0.70
2018-01-22T03:51:56.198Z,0.70
2018-01-22T03:54:26.831Z,0.70
2018-01-22T03:56:56.684Z,0.70
2018-01-22T03:59:26.554Z,0.70
2018-01-22T04:01:56.407Z,0.70
2018-01-22T04:04:26.360Z,0.70
2018-01-22T04:06:57.019Z,0.70
2018-01-22T04:09:26.907Z,0.70
2018-01-22T04:11:56.751Z,0.70
2018-01-22T04:14:27.406Z,0.70
2018-01-22T04:16:57.311Z,0.70
2018-01-22T04:19:27.935Z,0.70
2018-01-22T04:21:57.488Z,0.60
2018-01-22T04:24:27.332Z,0.60
2018-01-22T04:26:57.167Z,0.60
2018-01-22T04:29:27.795Z,0.60
2018-01-22T04:31:58.431Z,0.60
2018-01-22T04:34:29.031Z,0.60
2018-01-22T04:36:58.905Z,0.60
2018-01-22T04:39:28.783Z,0.60
2018-01-22T04:41:58.646Z,0.60
2018-01-22T04:44:28.539Z,0.50
2018-01-22T04:46:58.465Z,0.50
2018-01-22T04:49:28.354Z,0.50
2018-01-22T04:51:58.972Z,0.50
2018-01-22T04:54:29.598Z,0.50
2018-01-22T04:56:59.423Z,0.50
2018-01-22T04:59:30.052Z,0.40
2018-01-22T05:02:00.686Z,0.40
2018-01-22T05:04:31.087Z,0.40
2018-01-22T05:07:00.979Z,0.40
2018-01-22T05:09:30.826Z,0.40
2018-01-22T05:12:00.732Z,0.40
2018-01-22T05:14:30.626Z,0.50
2018-01-22T05:17:00.271Z,0.50
2018-01-22T05:19:30.233Z,0.50
2018-01-22T05:22:00.079Z,0.40
2018-01-22T05:24:29.948Z,0.40
2018-01-22T05:26:59.811Z,0.40
2018-01-22T05:29:29.705Z,0.40
2018-01-22T05:31:59.544Z,0.40
2018-01-22T05:34:29.416Z,0.40
2018-01-22T05:36:59.312Z,0.40
2018-01-22T05:39:29.148Z,0.40
2018-01-22T05:41:59.030Z,0.40
2018-01-22T05:44:29.642Z,0.40
2018-01-22T05:46:59.507Z,0.40
2018-01-22T05:49:29.323Z,0.40
2018-01-22T05:51:59.185Z,0.40
2018-01-22T05:54:29.099Z,0.50
2018-01-22T05:56:58.774Z,0.50
2018-01-22T05:59:28.456Z,0.40
2018-01-22T06:01:58.014Z,0.40
2018-01-22T06:04:27.899Z,0.40
2018-01-22T06:06:58.784Z,0.40
2018-01-22T06:09:29.532Z,0.50
2018-01-22T06:12:01.012Z,0.50
2018-01-22T06:14:32.020Z,0.50
2018-01-22T06:17:02.608Z,0.50
2018-01-22T06:19:32.481Z,0.50
2018-01-22T06:22:02.141Z,0.50
2018-01-22T06:24:32.012Z,0.50
2018-01-22T06:27:01.859Z,0.50
2018-01-22T06:29:31.687Z,0.50
2018-01-22T06:32:01.550Z,0.40
2018-01-22T06:34:31.428Z,0.50
2018-01-22T06:37:01.260Z,0.50
2018-01-22T06:39:31.916Z,0.40
2018-01-22T06:42:01.827Z,0.30
2018-01-22T06:44:31.671Z,0.30
2018-01-22T06:47:01.292Z,0.40
2018-01-22T06:49:31.182Z,0.40
2018-01-22T06:52:01.076Z,0.30
2018-01-22T06:54:30.939Z,0.30
2018-01-22T06:57:00.767Z,0.30
2018-01-22T06:59:30.651Z,0.30
2018-01-22T07:02:00.483Z,0.30
2018-01-22T07:04:30.346Z,0.30
2018-01-22T07:07:01.116Z,0.30
2018-01-22T07:09:31.009Z,0.30
2018-01-22T07:12:00.862Z,0.30
2018-01-22T07:14:30.743Z,0.40
2018-01-22T07:17:00.615Z,0.40
2018-01-22T07:19:31.269Z,0.40
2018-01-22T07:22:01.159Z,0.30
2018-01-22T07:24:31.999Z,0.40
2018-01-22T07:27:01.865Z,0.40
2018-01-22T07:29:31.745Z,0.40
2018-01-22T07:32:01.711Z,0.50
2018-01-22T07:34:31.600Z,0.50
2018-01-22T07:37:01.471Z,0.60
2018-01-22T07:39:31.767Z,0.60
2018-01-22T07:42:01.652Z,0.60
2018-01-22T07:44:31.516Z,0.60
2018-01-22T07:47:01.396Z,0.70
2018-01-22T07:49:31.299Z,0.70
2018-01-22T07:52:01.242Z,0.60
2018-01-22T07:54:31.134Z,0.60
2018-01-22T07:57:01.017Z,0.50
2018-01-22T07:59:31.675Z,0.60
2018-01-22T08:02:01.532Z,0.60
2018-01-22T08:04:31.429Z,0.70
2018-01-22T08:07:01.319Z,0.70
2018-01-22T08:09:31.231Z,0.70
2018-01-22T08:12:01.111Z,0.70
2018-01-22T08:14:30.964Z,0.70
2018-01-22T08:17:00.824Z,0.70
2018-01-22T08:19:30.689Z,0.80
2018-01-22T08:22:00.212Z,0.70
2018-01-22T08:24:30.091Z,0.80
2018-01-22T08:27:00.700Z,0.80
2018-01-22T08:29:30.576Z,0.80
2018-01-22T08:32:00.720Z,0.80
2018-01-22T08:34:30.861Z,0.80
2018-01-22T08:37:00.936Z,0.80
2018-01-22T08:39:30.751Z,0.80
2018-01-22T08:42:01.160Z,0.90
2018-01-22T08:44:31.827Z,0.90
2018-01-22T08:47:01.763Z,1.00
2018-01-22T08:49:32.347Z,1.00
2018-01-22T08:52:02.264Z,1.00
2018-01-22T08:54:32.150Z,1.00
2018-01-22T08:57:01.983Z,1.00
2018-01-22T08:59:31.867Z,1.00
2018-01-22T09:02:01.515Z,1.00
2018-01-22T09:04:31.471Z,1.10
2018-01-22T09:07:01.343Z,1.10
2018-01-22T09:09:31.191Z,1.10
2018-01-22T09:12:01.041Z,1.30
2018-01-22T09:14:30.855Z,1.40
2018-01-22T09:17:00.732Z,1.50
2018-01-22T09:19:30.570Z,1.60
2018-01-22T09:22:00.436Z,1.50
2018-01-22T09:24:30.277Z,1.40
2018-01-22T09:27:00.141Z,1.40
2018-01-22T09:29:30.784Z,1.70
2018-01-22T09:32:00.618Z,1.60
2018-01-22T09:34:30.468Z,1.80
2018-01-22T09:37:00.322Z,1.90
2018-01-22T09:39:29.703Z,1.80
2018-01-22T09:41:59.575Z,1.80
2018-01-22T09:44:29.397Z,1.80
2018-01-22T09:46:59.255Z,2.00
2018-01-22T09:49:30.191Z,2.20
2018-01-22T09:52:00.837Z,2.30
2018-01-22T09:54:31.494Z,2.20
2018-01-22T09:57:01.360Z,2.20
2018-01-22T09:59:31.193Z,2.10
2018-01-22T10:02:01.923Z,2.10
2018-01-22T10:04:32.512Z,2.20
2018-01-22T10:07:02.428Z,2.20
2018-01-22T10:09:32.332Z,2.20
2018-01-22T10:12:02.199Z,2.20
2018-01-22T10:14:31.803Z,2.10
2018-01-22T10:17:02.479Z,2.10
2018-01-22T10:19:32.355Z,2.10
2018-01-22T10:22:02.990Z,2.30
2018-01-22T10:24:32.871Z,2.30
2018-01-22T10:27:02.761Z,2.30
2018-01-22T10:29:32.636Z,2.20
2018-01-22T10:32:02.455Z,2.20
2018-01-22T10:34:32.843Z,2.20
2018-01-22T10:37:02.699Z,2.20
2018-01-22T10:39:32.552Z,2.20
2018-01-22T10:42:02.640Z,2.20
2018-01-22T10:44:32.211Z,2.20
2018-01-22T10:47:02.112Z,2.20
2018-01-22T10:49:31.971Z,2.20
2018-01-22T10:52:04.063Z,2.10
2018-01-22T10:54:37.989Z,2.00
2018-01-22T10:57:08.036Z,2.10
2018-01-22T10:59:40.382Z,2.20
2018-01-22T11:02:11.352Z,2.20
2018-01-22T11:04:43.913Z,2.40
2018-01-22T11:07:14.768Z,2.40
2018-01-22T11:09:44.633Z,2.40
2018-01-22T11:12:14.500Z,2.40
2018-01-22T11:14:44.341Z,2.40
2018-01-22T11:17:14.971Z,2.50
2018-01-22T11:19:45.563Z,2.40
2018-01-22T11:22:15.420Z,2.40
2018-01-22T11:24:46.067Z,2.40
2018-01-22T11:27:16.101Z,2.40
2018-01-22T11:29:47.032Z,2.50
2018-01-22T11:32:16.898Z,2.40
2018-01-22T11:34:46.771Z,2.40
2018-01-22T11:37:16.664Z,2.40
2018-01-22T11:39:47.275Z,2.30
2018-01-22T11:42:17.154Z,2.30
2018-01-22T11:44:47.047Z,2.30
2018-01-22T11:47:16.921Z,2.30
2018-01-22T11:49:47.467Z,2.30
2018-01-22T11:52:17.315Z,2.30
2018-01-22T11:54:47.223Z,2.40
2018-01-22T11:57:17.066Z,2.30
2018-01-22T11:59:46.903Z,2.30
2018-01-22T12:02:16.771Z,2.30
2018-01-22T12:04:46.630Z,2.40
2018-01-22T12:07:16.494Z,2.40
2018-01-22T12:09:46.486Z,2.30
2018-01-22T12:12:16.495Z,2.20
2018-01-22T12:14:47.115Z,2.10
2018-01-22T12:17:17.026Z,2.10
2018-01-22T12:19:47.658Z,2.20
2018-01-22T12:22:17.894Z,2.20
2018-01-22T12:24:48.600Z,2.20
2018-01-22T12:27:18.528Z,2.30
2018-01-22T12:29:48.399Z,2.30
2018-01-22T12:32:18.306Z,2.30
2018-01-22T12:34:48.821Z,2.30
2018-01-22T12:37:18.815Z,2.30
2018-01-22T12:39:48.660Z,2.30
2018-01-22T12:42:18.597Z,2.50
2018-01-22T12:44:48.523Z,2.40
2018-01-22T12:47:18.371Z,2.40
2018-01-22T12:49:48.288Z,2.40
2018-01-22T12:52:18.148Z,2.50
2018-01-22T12:54:48.045Z,2.40
2018-01-22T12:57:17.941Z,2.30
2018-01-22T12:59:47.758Z,2.40
2018-01-22T13:02:17.946Z,2.40
2018-01-22T13:04:47.760Z,2.30
2018-01-22T13:07:17.942Z,2.30
2018-01-22T13:09:47.957Z,2.30
2018-01-22T13:12:19.504Z,2.40
2018-01-22T13:14:49.446Z,2.40
2018-01-22T13:17:19.463Z,2.50
2018-01-22T13:19:49.317Z,2.60
2018-01-22T13:22:20.363Z,2.70
2018-01-22T13:24:51.240Z,2.70
2018-01-22T13:27:21.195Z,2.70
2018-01-22T13:29:51.333Z,2.70
2018-01-22T13:32:21.234Z,2.50
2018-01-22T13:34:52.787Z,2.60
2018-01-22T13:37:22.652Z,2.60
2018-01-22T13:39:52.315Z,2.50
2018-01-22T13:42:22.172Z,2.50
2018-01-22T13:44:52.027Z,2.60
2018-01-22T13:47:21.889Z,2.50
2018-01-22T13:49:52.524Z,2.30
2018-01-22T13:52:23.183Z,2.30
2018-01-22T13:54:53.138Z,2.30
2018-01-22T13:57:22.979Z,2.30
2018-01-22T13:59:53.049Z,2.30
2018-01-22T14:02:22.962Z,2.40
2018-01-22T14:04:52.819Z,2.40
2018-01-22T14:07:22.731Z,2.50
2018-01-22T14:09:52.548Z,2.50
2018-01-22T14:12:22.426Z,2.50
2018-01-22T14:14:52.306Z,2.60
2018-01-22T14:17:22.906Z,2.60
2018-01-22T14:19:52.801Z,2.60
2018-01-22T14:22:22.675Z,2.50
2018-01-22T14:24:53.689Z,2.40
2018-01-22T14:27:23.545Z,2.40
2018-01-22T14:29:53.471Z,2.40
2018-01-22T14:32:23.304Z,2.30
2018-01-22T14:34:53.166Z,2.40
2018-01-22T14:37:23.050Z,2.40
2018-01-22T14:39:52.889Z,2.40
2018-01-22T14:42:23.000Z,2.40
2018-01-22T14:44:52.867Z,2.30
2018-01-22T14:47:22.743Z,2.30
2018-01-22T14:49:52.585Z,2.30
2018-01-22T14:52:23.235Z,2.40
2018-01-22T14:54:53.063Z,2.30
2018-01-22T14:57:22.978Z,2.40
2018-01-22T14:59:52.827Z,2.40
2018-01-22T15:02:23.655Z,2.40
2018-01-22T15:04:53.531Z,2.40
2018-01-22T15:07:23.403Z,2.40
2018-01-22T15:09:53.399Z,2.40
2018-01-22T15:12:23.220Z,2.40
2018-01-22T15:14:53.085Z,2.40
2018-01-22T15:17:22.964Z,2.40
2018-01-22T15:19:52.656Z,2.50
2018-01-22T15:22:22.552Z,2.50
2018-01-22T15:24:52.409Z,2.50
2018-01-22T15:27:22.307Z,2.40
2018-01-22T15:29:52.163Z,2.50
2018-01-22T15:32:22.798Z,2.30
2018-01-22T15:34:52.699Z,2.30
2018-01-22T15:37:23.405Z,2.20
2018-01-22T15:39:53.267Z,2.20
2018-01-22T15:42:23.190Z,2.20
2018-01-22T15:44:53.047Z,2.20
2018-01-22T15:47:22.915Z,2.10
2018-01-22T15:49:52.802Z,2.00
2018-01-22T15:52:22.639Z,2.00
2018-01-22T15:54:52.499Z,1.90
2018-01-22T15:57:22.367Z,1.90
2018-01-22T15:59:52.235Z,1.80
2018-01-22T16:02:22.061Z,1.80
2018-01-22T16:04:51.958Z,1.80
2018-01-22T16:07:21.792Z,1.90
2018-01-22T16:09:51.687Z,1.90
2018-01-22T16:12:21.527Z,1.80
2018-01-22T16:14:52.152Z,1.80
2018-01-22T16:17:22.042Z,1.80
2018-01-22T16:19:51.948Z,1.80
2018-01-22T16:22:21.791Z,1.90
2018-01-22T16:24:51.690Z,1.90
2018-01-22T16:27:21.539Z,1.90
2018-01-22T16:29:51.863Z,1.80
2018-01-22T16:32:22.558Z,1.80
2018-01-22T16:34:52.458Z,1.80
2018-01-22T16:37:23.202Z,1.90
2018-01-22T16:39:53.059Z,1.90
2018-01-22T16:42:23.723Z,1.80
2018-01-22T16:44:53.554Z,1.90
2018-01-22T16:47:28.916Z,1.80
2018-01-22T16:49:58.756Z,1.80
2018-01-22T16:52:29.388Z,1.80
2018-01-22T16:55:00.036Z,1.80
2018-01-22T16:57:29.918Z,1.80
2018-01-22T16:59:59.750Z,1.80
2018-01-22T17:02:29.639Z,1.80
2018-01-22T17:04:59.475Z,1.70
2018-01-22T17:07:30.143Z,1.70
2018-01-22T17:09:59.977Z,1.70
2018-01-22T17:12:29.863Z,1.60
2018-01-22T17:14:59.735Z,1.60
2018-01-22T17:17:29.571Z,1.50
2018-01-22T17:20:00.227Z,1.60
2018-01-22T17:22:30.068Z,1.60
2018-01-22T17:24:59.944Z,1.60
2018-01-22T17:27:30.600Z,1.50
2018-01-22T17:30:00.503Z,1.50
2018-01-22T17:32:30.328Z,1.50
2018-01-22T17:35:00.258Z,1.60
2018-01-22T17:37:30.111Z,1.60
2018-01-22T17:39:59.973Z,1.50
2018-01-22T17:42:29.888Z,1.40
2018-01-22T17:44:59.865Z,1.30
2018-01-22T17:47:30.492Z,1.20
2018-01-22T17:50:00.583Z,1.20
2018-01-22T17:52:31.697Z,1.20
2018-01-22T17:55:02.391Z,1.20
2018-01-22T17:57:32.370Z,1.20
2018-01-22T18:00:02.311Z,1.20
2018-01-22T18:02:31.840Z,1.20
2018-01-22T18:05:01.708Z,1.10
2018-01-22T18:07:31.955Z,1.20
2018-01-22T18:10:01.813Z,1.20
2018-01-22T18:12:32.523Z,1.10
2018-01-22T18:15:02.384Z,1.10
2018-01-22T18:17:32.273Z,1.10
2018-01-22T18:20:02.144Z,1.10
2018-01-22T18:22:31.968Z,1.20
2018-01-22T18:25:01.847Z,1.30
2018-01-22T18:27:31.692Z,1.20
2018-01-22T18:30:01.591Z,1.10
2018-01-22T18:32:31.407Z,1.10
2018-01-22T18:35:01.296Z,1.10
2018-01-22T18:37:31.139Z,1.00
2018-01-22T18:40:01.049Z,0.80
2018-01-22T18:42:30.884Z,0.80
2018-01-22T18:45:00.755Z,0.90
2018-01-22T18:47:30.584Z,0.90
2018-01-22T18:50:00.452Z,0.80
2018-01-22T18:52:30.470Z,0.80
2018-01-22T18:55:00.495Z,0.90
2018-01-22T18:57:30.370Z,0.90
2018-01-22T19:00:00.296Z,0.80
2018-01-22T19:02:30.209Z,0.90
2018-01-22T19:05:00.058Z,0.80
2018-01-22T19:07:31.115Z,0.90
2018-01-22T19:10:01.772Z,0.80
2018-01-22T19:12:31.599Z,0.80
2018-01-22T19:15:02.430Z,0.80
2018-01-22T19:17:32.283Z,0.80
2018-01-22T19:20:02.180Z,0.90
2018-01-22T19:22:32.079Z,0.80
2018-01-22T19:25:02.151Z,0.80
2018-01-22T19:27:32.760Z,0.70
2018-01-22T19:30:02.633Z,0.70
2018-01-22T19:32:32.482Z,0.70
2018-01-22T19:35:02.385Z,0.80
2018-01-22T19:37:32.029Z,0.80
2018-01-22T19:40:02.661Z,0.80
2018-01-22T19:42:33.267Z,0.80
2018-01-22T19:45:03.240Z,0.90
2018-01-22T19:47:34.586Z,0.90
2018-01-22T19:50:04.180Z,0.90
2018-01-22T19:52:34.793Z,0.80
2018-01-22T19:55:05.476Z,0.80
2018-01-22T19:57:35.095Z,0.80
2018-01-22T20:00:04.778Z,0.80
2018-01-22T20:02:34.674Z,0.90
2018-01-22T20:05:04.637Z,0.90
2018-01-22T20:07:34.524Z,0.90
2018-01-22T20:10:04.132Z,0.90
2018-01-22T20:12:33.987Z,0.90
2018-01-22T20:15:04.651Z,0.90
2018-01-22T20:17:36.151Z,0.90
2018-01-22T20:20:06.039Z,0.90
2018-01-22T20:22:36.030Z,0.90
2018-01-22T20:25:06.658Z,0.90
2018-01-22T20:27:36.551Z,0.90
2018-01-22T20:30:06.392Z,1.00
2018-01-22T20:32:36.298Z,1.00
2018-01-22T20:35:06.175Z,1.00
2018-01-22T20:37:36.456Z,1.00
2018-01-22T20:40:06.284Z,0.90
2018-01-22T20:42:36.183Z,0.90
2018-01-22T20:45:06.052Z,0.90
2018-01-22T20:47:35.967Z,0.90
2018-01-22T20:50:06.663Z,1.00
2018-01-22T20:52:37.466Z,0.90
2018-01-22T20:55:07.371Z,0.90
2018-01-22T20:57:37.271Z,0.90
2018-01-22T21:00:08.071Z,0.90
2018-01-22T21:02:37.946Z,0.90
2018-01-22T21:05:07.797Z,1.00
2018-01-22T21:07:37.676Z,1.00
2018-01-22T21:10:08.329Z,1.00
2018-01-22T21:12:38.290Z,1.00
2018-01-22T21:15:10.796Z,1.00
2018-01-22T21:17:40.701Z,1.00
2018-01-22T21:20:10.679Z,1.00
2018-01-22T21:22:40.535Z,1.00
2018-01-22T21:25:10.492Z,1.00
2018-01-22T21:27:41.122Z,1.10
2018-01-22T21:30:12.458Z,1.00
2018-01-22T21:32:42.298Z,1.00
2018-01-22T21:35:12.212Z,0.90
2018-01-22T21:37:42.283Z,1.00
2018-01-22T21:40:12.232Z,1.00
2018-01-22T21:42:42.925Z,1.10
2018-01-22T21:45:12.767Z,1.00
2018-01-22T21:47:42.672Z,1.10
2018-01-22T21:50:12.562Z,1.00
2018-01-22T21:52:42.427Z,1.00
2018-01-22T21:55:13.048Z,1.10
2018-01-22T21:57:43.787Z,1.10
2018-01-22T22:00:14.403Z,1.00
2018-01-22T22:02:45.920Z,1.00
2018-01-22T22:05:15.824Z,1.00
2018-01-22T22:07:45.703Z,1.00
2018-01-22T22:10:16.312Z,0.90
2018-01-22T22:12:46.156Z,0.90
2018-01-22T22:15:15.951Z,0.90
2018-01-22T22:17:45.821Z,0.90
2018-01-22T22:20:16.453Z,1.00
2018-01-22T22:22:46.355Z,1.00
2018-01-22T22:25:16.972Z,1.10
2018-01-22T22:27:46.793Z,1.10
2018-01-22T22:30:16.759Z,1.00
2018-01-22T22:32:46.608Z,1.00
2018-01-22T22:35:16.714Z,1.00
2018-01-22T22:37:46.572Z,1.00
2018-01-22T22:40:16.431Z,1.00
2018-01-22T22:42:46.299Z,0.90
2018-01-22T22:45:15.878Z,0.90
2018-01-22T22:47:45.862Z,0.90
2018-01-22T22:50:15.803Z,1.00
2018-01-22T22:52:45.697Z,1.00
2018-01-22T22:55:15.564Z,1.00
2018-01-22T22:57:45.427Z,0.90
2018-01-22T23:00:15.025Z,1.00
2018-01-22T23:02:44.666Z,1.00
2018-01-22T23:05:14.531Z,0.90
2018-01-22T23:07:45.148Z,0.90
2018-01-22T23:10:15.046Z,0.90
2018-01-22T23:12:44.903Z,0.90
2018-01-22T23:15:14.758Z,1.00
2018-01-22T23:17:44.595Z,1.00
2018-01-22T23:20:14.475Z,1.00
2018-01-22T23:22:44.324Z,1.00
2018-01-22T23:25:14.192Z,1.10
2018-01-22T23:27:44.068Z,1.10
2018-01-22T23:30:13.908Z,1.10
2018-01-22T23:32:43.814Z,1.10
2018-01-22T23:35:13.748Z,1.20
2018-01-22T23:37:43.665Z,1.10
2018-01-22T23:40:13.621Z,1.10
2018-01-22T23:42:44.236Z,1.20
2018-01-22T23:45:14.126Z,1.20
2018-01-22T23:47:44.246Z,1.10
2018-01-22T23:50:14.093Z,1.10
2018-01-22T23:52:44.078Z,1.10
2018-01-22T23:55:14.095Z,1.10
2018-01-22T23:57:44.113Z,1.10
